Terminal Aerodrome Forecast
Issued by NWS

Home | Current Version | Previous Version | Text Only | Print | Product List | Glossary On
Versions: 1 2 3 4 5 6 7 8 9 10 11 12 13 14
000
FTUS44 KLIX 310500
TAFMSY
TAF
KMSY 310540Z 3106/0106 08004KT P6SM FEW250
     FM311500 05004KT P6SM SCT030
     FM311800 10005KT P6SM SCT035 BKN100
     FM312300 16003KT P6SM BKN100=

USA.gov is the U.S. government's official web portal to all federal, state and local government web resources and services.